Garwin, IA (50632)

4:54 PM CDT on April 28, 2017 (GMT -0500)
Green Mountain | | Change Station

Elev 997 ft 42.12 °N, 92.83 °W | Updated 1 second ago

Overcast
Overcast
41.5 °F
Feels Like 32 °F
N
23.0
Wind Variable Wind from NE

Today
High -- | Low -- °F
--% Chance of Precip.
Yesterday
High -- | Low -- °F
Precip. -- in
Pressure 29.87 in
Visibility 10.0 miles
Clouds Mostly Cloudy 1100 ft
Mostly Cloudy 3300 ft
Overcast 5000 ft
Windchill 32 °F
Dew Point 37 °F
Humidity 86%
Rainfall 0.22 in
Snow Depth Not available.
6:10 AM 8:06 PM
Waxing Crescent, 9% visible
SPECI KMIW 282151Z AUTO 02015KT 10SM BKN011 BKN033 OVC050 06/04 A2987 RMK AO2 RAE38 P0004
Pressure 29.87 in
Visibility 10.0 miles
Clouds Mostly Cloudy 1100 ft
Mostly Cloudy 3300 ft
Overcast 5000 ft
Windchill 32 °F
Dew Point 37 °F
Humidity 86%
Rainfall 0.22 in
Snow Depth Not available.
6:10 AM 8:06 PM
Waxing Crescent, 9% visible
SPECI KMIW 282151Z AUTO 02015KT 10SM BKN011 BKN033 OVC050 06/04 A2987 RMK AO2 RAE38 P0004

Get Severe Weather Alerts

Thanks for signing up!

Be on the lookout for a verification email in your inbox.

You'll start receiving the daily forecast at 8 AM.

×

10-Day Weather Forecast

Almanac

Astronomy

Apr. 28, 2017 Rise Set
Actual Time
Civil Twilight
Nautical Twilight
Astronomical Twilight
Moon
Length of Visible Light
Length of Day
Tomorrow will be .
, % of the Moon is Illuminated

Today's Extremes

State Highs State Lows

Community

WunderPhotos

WunderBlog® & News

Nearby

Air Quality

  Air Quality AQ Index Pollutant
Not available.

Snow Depth

Station Depth Elevation

Earthquake Activity

City Distance Mag. Time & Date
Minimum magnitude displayed is 2.5.

Coastal Water Temperatures

Place Temperature

Stations

Nearby Weather Stations

Station Location Temp. Windchill Dew Point Humidity Wind Precip. Elev Updated Type
                   

Watches & Warnings

There are currently no watches in effect.